createdAt,value
2023-02-19T00:02:18.035Z,5.18
2023-02-19T00:04:45.392Z,6.38
2023-02-19T00:07:12.537Z,5.75
2023-02-19T00:09:39.576Z,6.43
2023-02-19T00:12:06.991Z,6.68
2023-02-19T00:14:34.020Z,5.35
2023-02-19T00:17:01.130Z,5.53
2023-02-19T00:19:28.422Z,5.65
2023-02-19T00:21:55.556Z,6.38
2023-02-19T00:24:22.833Z,4.95
2023-02-19T00:26:50.091Z,6.22
2023-02-19T00:29:21.750Z,6.32
2023-02-19T00:31:49.771Z,5.68
2023-02-19T00:34:17.034Z,6.43
2023-02-19T00:36:44.732Z,6.07
2023-02-19T00:39:15.925Z,5.95
2023-02-19T00:41:43.732Z,5.55
2023-02-19T00:44:12.239Z,5.90
2023-02-19T00:46:46.201Z,5.55
2023-02-19T00:49:20.150Z,7.45
2023-02-19T00:51:47.765Z,6.50
2023-02-19T00:54:15.722Z,6.45
2023-02-19T00:56:43.139Z,6.30
2023-02-19T00:59:10.407Z,6.40
2023-02-19T01:01:38.390Z,6.70
2023-02-19T01:04:06.715Z,5.15
2023-02-19T01:06:34.863Z,6.45
2023-02-19T01:09:02.832Z,3.45
2023-02-19T01:11:30.063Z,5.63
2023-02-19T01:13:58.696Z,6.10
2023-02-19T01:16:27.579Z,6.07
2023-02-19T01:18:56.500Z,6.18
2023-02-19T01:21:26.528Z,6.32
2023-02-19T01:26:26.349Z,3.95
2023-02-19T01:28:53.603Z,5.95
2023-02-19T01:31:23.644Z,5.82
2023-02-19T01:33:57.000Z,5.80
2023-02-19T01:36:25.110Z,4.35
2023-02-19T01:38:52.258Z,4.78
2023-02-19T01:41:22.607Z,6.22
2023-02-19T01:44:09.237Z,5.20
2023-02-19T01:46:38.956Z,4.93
2023-02-19T01:49:15.062Z,5.43
2023-02-19T01:51:47.571Z,4.88
2023-02-19T01:54:18.286Z,5.13
2023-02-19T01:56:47.682Z,5.78
2023-02-19T01:59:15.512Z,5.25
2023-02-19T02:01:43.743Z,5.00
2023-02-19T02:04:13.593Z,4.57
2023-02-19T02:06:50.282Z,4.47
2023-02-19T02:09:39.161Z,3.38
2023-02-19T02:12:07.407Z,5.50
2023-02-19T02:14:38.265Z,5.47
2023-02-19T02:17:05.216Z,4.95
2023-02-19T02:20:19.872Z,5.15
2023-02-19T02:23:08.911Z,4.47
2023-02-19T02:26:30.525Z,4.88
2023-02-19T02:29:37.558Z,5.07
2023-02-19T02:32:13.811Z,3.38
2023-02-19T02:34:58.008Z,4.05
2023-02-19T02:37:27.881Z,4.05
2023-02-19T02:39:58.751Z,4.50
2023-02-19T02:42:28.744Z,4.85
2023-02-19T02:45:35.300Z,5.32
2023-02-19T02:48:22.043Z,5.00
2023-02-19T02:51:02.863Z,5.10
2023-02-19T02:54:06.802Z,5.35
2023-02-19T02:56:35.464Z,4.03
2023-02-19T02:59:05.899Z,4.32
2023-02-19T03:05:22.617Z,5.55
2023-02-19T03:07:53.518Z,5.35
2023-02-19T03:10:27.513Z,5.25
2023-02-19T03:13:16.305Z,5.82
2023-02-19T03:16:08.141Z,4.53
2023-02-19T03:18:57.508Z,4.85
2023-02-19T03:21:25.780Z,5.60
2023-02-19T03:24:12.689Z,5.35
2023-02-19T03:26:43.678Z,3.58
2023-02-19T03:29:26.328Z,5.40
2023-02-19T03:32:36.733Z,5.13
2023-02-19T03:35:11.716Z,4.88
2023-02-19T03:38:02.666Z,5.78
2023-02-19T03:40:37.417Z,4.47
2023-02-19T03:43:34.678Z,4.85
2023-02-19T03:46:23.419Z,5.15
2023-02-19T03:49:05.036Z,4.22
2023-02-19T03:51:51.114Z,5.10
2023-02-19T03:54:47.413Z,5.55
2023-02-19T03:57:36.350Z,4.65
2023-02-19T04:00:39.361Z,5.78
2023-02-19T04:03:13.362Z,4.93
2023-02-19T04:05:47.279Z,5.97
2023-02-19T04:08:18.962Z,5.13
2023-02-19T04:10:53.877Z,5.95
2023-02-19T04:13:33.532Z,5.40
2023-02-19T04:16:06.875Z,5.43
2023-02-19T04:18:40.023Z,6.32
2023-02-19T04:21:09.703Z,5.72
2023-02-19T04:23:44.765Z,6.13
2023-02-19T04:26:13.932Z,5.50
2023-02-19T04:28:43.183Z,5.88
2023-02-19T04:31:10.925Z,5.88
2023-02-19T04:33:38.550Z,6.78
2023-02-19T04:36:07.364Z,5.05
2023-02-19T04:38:34.385Z,6.22
2023-02-19T04:41:01.411Z,5.88
2023-02-19T04:43:28.499Z,4.93
2023-02-19T04:46:00.022Z,5.50
2023-02-19T04:48:27.167Z,4.55
2023-02-19T04:50:54.218Z,5.32
2023-02-19T04:53:21.241Z,5.28
2023-02-19T04:55:48.668Z,6.15
2023-02-19T04:58:15.777Z,4.95
2023-02-19T05:00:42.825Z,5.47
2023-02-19T05:03:09.836Z,5.22
2023-02-19T05:05:36.868Z,5.05
2023-02-19T05:08:03.921Z,5.25
2023-02-19T05:10:31.267Z,4.38
2023-02-19T05:12:58.271Z,3.95
2023-02-19T05:15:25.320Z,4.93
2023-02-19T05:17:52.358Z,5.25
2023-02-19T05:20:19.503Z,4.60
2023-02-19T05:22:46.523Z,4.30
2023-02-19T05:25:13.542Z,4.70
2023-02-19T05:27:40.566Z,4.05
2023-02-19T05:30:08.035Z,4.78
2023-02-19T05:32:35.883Z,5.10
2023-02-19T05:35:03.041Z,4.85
2023-02-19T05:37:30.406Z,5.63
2023-02-19T05:39:57.442Z,4.78
2023-02-19T05:42:24.453Z,5.32
2023-02-19T05:44:51.494Z,4.28
2023-02-19T05:47:18.481Z,6.70
2023-02-19T05:49:45.486Z,5.25
2023-02-19T05:52:12.586Z,3.95
2023-02-19T05:54:39.608Z,4.55
2023-02-19T05:57:06.620Z,4.55
2023-02-19T05:59:33.646Z,5.20
2023-02-19T06:02:00.658Z,4.00
2023-02-19T06:04:27.763Z,4.40
2023-02-19T06:06:54.795Z,3.95
2023-02-19T06:09:21.897Z,3.67
2023-02-19T06:11:48.921Z,4.95
2023-02-19T06:14:16.121Z,4.40
2023-02-19T06:16:43.228Z,4.70
2023-02-19T06:19:10.946Z,4.07
2023-02-19T06:21:38.003Z,4.97
2023-02-19T06:24:06.994Z,4.32
2023-02-19T06:26:34.278Z,4.53
2023-02-19T06:29:01.389Z,4.55
2023-02-19T06:31:28.558Z,4.20
2023-02-19T06:33:55.683Z,4.57
2023-02-19T06:36:23.720Z,5.28
2023-02-19T06:38:51.124Z,4.32
2023-02-19T06:41:19.292Z,4.07
2023-02-19T06:43:46.839Z,3.90
2023-02-19T06:46:14.269Z,3.60
2023-02-19T06:48:43.097Z,4.13
2023-02-19T06:51:13.424Z,4.15
2023-02-19T06:53:40.526Z,3.83
2023-02-19T06:56:23.366Z,5.72
2023-02-19T06:58:50.816Z,4.13
2023-02-19T07:01:18.097Z,4.70
2023-02-19T07:03:45.274Z,4.05
2023-02-19T07:06:12.321Z,4.07
2023-02-19T07:08:39.474Z,3.95
2023-02-19T07:11:08.483Z,4.05
2023-02-19T07:13:35.641Z,4.25
2023-02-19T07:16:08.700Z,4.18
2023-02-19T07:18:36.032Z,3.80
2023-02-19T07:21:12.822Z,4.88
2023-02-19T07:23:41.474Z,5.35
2023-02-19T07:26:13.283Z,4.13
2023-02-19T07:28:42.103Z,4.05
2023-02-19T07:31:09.757Z,3.45
2023-02-19T07:33:37.396Z,3.97
2023-02-19T07:36:07.713Z,4.43
2023-02-19T07:38:34.839Z,4.00
2023-02-19T07:41:04.088Z,4.50
2023-02-19T07:43:33.543Z,7.30
2023-02-19T07:46:11.876Z,5.00
2023-02-19T07:48:40.540Z,4.60
2023-02-19T07:51:11.739Z,4.70
2023-02-19T07:53:39.083Z,4.80
2023-02-19T07:56:08.434Z,3.75
2023-02-19T07:58:35.744Z,3.80
2023-02-19T08:01:16.277Z,4.75
2023-02-19T08:03:44.525Z,4.22
2023-02-19T08:06:12.358Z,3.97
2023-02-19T08:08:39.999Z,4.43
2023-02-19T08:11:26.188Z,5.65
2023-02-19T08:13:54.039Z,4.72
2023-02-19T08:16:36.771Z,5.43
2023-02-19T08:19:09.303Z,4.78
2023-02-19T08:21:36.346Z,5.07
2023-02-19T08:24:03.591Z,4.45
2023-02-19T08:26:30.706Z,4.43
2023-02-19T08:28:59.150Z,5.40
2023-02-19T08:31:27.399Z,4.90
2023-02-19T08:33:54.483Z,5.47
2023-02-19T08:36:21.556Z,4.60
2023-02-19T08:38:48.606Z,4.47
2023-02-19T08:41:16.089Z,4.47
2023-02-19T08:43:43.422Z,4.50
2023-02-19T08:46:12.137Z,4.50
2023-02-19T08:48:40.236Z,4.93
2023-02-19T08:51:10.334Z,4.57
2023-02-19T08:53:39.357Z,5.72
2023-02-19T08:56:11.472Z,4.20
2023-02-19T08:58:38.858Z,4.25
2023-02-19T09:01:14.849Z,5.55
2023-02-19T09:03:42.378Z,5.20
2023-02-19T09:06:15.903Z,5.47
2023-02-19T09:08:42.945Z,4.80
2023-02-19T09:11:10.392Z,4.68
2023-02-19T09:13:37.938Z,5.07
2023-02-19T09:16:06.125Z,5.88
2023-02-19T09:18:33.299Z,5.10
2023-02-19T09:21:02.452Z,5.25
2023-02-19T09:23:29.661Z,4.57
2023-02-19T09:26:01.109Z,5.00
2023-02-19T09:28:28.768Z,5.25
2023-02-19T09:30:56.046Z,5.32
2023-02-19T09:33:23.237Z,4.95
2023-02-19T09:35:50.333Z,6.35
2023-02-19T09:38:17.536Z,5.20
2023-02-19T09:40:44.698Z,5.10
2023-02-19T09:43:19.966Z,4.85
2023-02-19T09:45:48.045Z,5.60
2023-02-19T09:48:15.163Z,5.38
2023-02-19T09:50:49.089Z,5.18
2023-02-19T09:53:24.799Z,5.07
2023-02-19T09:58:27.563Z,4.53
2023-02-19T10:00:56.823Z,4.38
2023-02-19T10:03:33.860Z,6.13
2023-02-19T10:06:20.884Z,5.20
2023-02-19T10:08:50.955Z,5.07
2023-02-19T10:11:19.136Z,4.93
2023-02-19T10:14:05.109Z,4.95
2023-02-19T10:16:32.532Z,5.30
2023-02-19T10:18:59.587Z,5.05
2023-02-19T10:21:28.226Z,5.30
2023-02-19T10:24:00.522Z,5.28
2023-02-19T10:26:27.867Z,5.75
2023-02-19T10:28:55.684Z,5.68
2023-02-19T10:31:25.541Z,4.85
2023-02-19T10:33:58.352Z,5.93
2023-02-19T10:36:39.954Z,4.80
2023-02-19T10:41:51.620Z,5.95
2023-02-19T10:44:24.362Z,5.00
2023-02-19T10:46:55.347Z,4.32
2023-02-19T10:49:32.985Z,5.05
2023-02-19T10:52:17.973Z,6.80
2023-02-19T10:54:46.909Z,5.25
2023-02-19T10:57:17.025Z,5.28
2023-02-19T10:59:58.665Z,5.85
2023-02-19T11:05:17.283Z,5.30
2023-02-19T11:07:48.539Z,5.68
2023-02-19T11:10:34.587Z,5.65
2023-02-19T11:13:05.140Z,5.45
2023-02-19T11:15:35.015Z,6.53
2023-02-19T11:18:20.666Z,6.00
2023-02-19T11:20:55.931Z,5.20
2023-02-19T11:23:34.330Z,5.75
2023-02-19T11:26:06.535Z,5.20
2023-02-19T11:28:35.582Z,4.50
2023-02-19T11:31:20.300Z,5.18
2023-02-19T11:34:26.305Z,5.43
2023-02-19T11:37:28.820Z,5.55
2023-02-19T11:39:55.843Z,5.63
2023-02-19T11:49:51.122Z,5.78
2023-02-19T11:52:27.080Z,5.68
2023-02-19T11:55:09.110Z,6.05
2023-02-19T12:01:15.883Z,6.80
2023-02-19T12:04:23.247Z,5.53
2023-02-19T12:06:55.991Z,5.35
2023-02-19T12:09:41.679Z,6.05
2023-02-19T12:12:21.801Z,6.53
2023-02-19T12:15:20.306Z,4.72
2023-02-19T12:17:59.412Z,5.75
2023-02-19T12:21:10.130Z,5.75
2023-02-19T12:24:16.477Z,5.72
2023-02-19T12:27:05.352Z,6.13
2023-02-19T12:29:47.500Z,5.20
2023-02-19T12:32:56.039Z,5.63
2023-02-19T12:35:48.099Z,4.82
2023-02-19T12:38:24.991Z,5.53
2023-02-19T12:41:04.400Z,6.15
2023-02-19T12:43:33.688Z,6.35
2023-02-19T12:46:11.647Z,5.55
2023-02-19T12:49:08.707Z,5.68
2023-02-19T12:51:44.845Z,6.05
2023-02-19T12:54:25.357Z,6.38
2023-02-19T12:57:00.444Z,5.18
2023-02-19T12:59:31.724Z,5.50
2023-02-19T13:02:38.067Z,7.05
2023-02-19T13:05:11.271Z,6.07
2023-02-19T13:07:51.348Z,6.57
2023-02-19T13:10:31.883Z,6.05
2023-02-19T13:13:05.102Z,6.00
2023-02-19T13:15:48.554Z,5.22
2023-02-19T13:18:21.402Z,6.45
2023-02-19T13:20:49.473Z,6.50
2023-02-19T13:23:51.933Z,7.70
2023-02-19T13:26:40.538Z,5.80
2023-02-19T13:29:26.085Z,5.90
2023-02-19T13:31:53.356Z,5.78
2023-02-19T13:34:38.704Z,6.25
2023-02-19T13:37:06.501Z,6.90
2023-02-19T13:39:34.557Z,6.95
2023-02-19T13:42:02.057Z,6.80
2023-02-19T13:44:32.467Z,6.10
2023-02-19T13:47:00.755Z,6.63
2023-02-19T13:49:27.921Z,6.35
2023-02-19T13:52:29.356Z,5.82
2023-02-19T13:55:33.956Z,5.97
2023-02-19T13:58:33.511Z,6.05
2023-02-19T14:04:07.138Z,6.30
2023-02-19T14:07:05.929Z,5.78
2023-02-19T14:09:41.554Z,6.80
2023-02-19T14:12:09.763Z,6.13
2023-02-19T14:14:43.709Z,6.43
2023-02-19T14:17:10.736Z,7.30
2023-02-19T14:19:57.244Z,6.15
2023-02-19T14:22:47.573Z,7.38
2023-02-19T14:25:28.470Z,6.95
2023-02-19T14:28:05.959Z,7.05
2023-02-19T14:30:35.278Z,6.68
2023-02-19T14:33:11.459Z,5.55
2023-02-19T14:35:42.749Z,7.25
2023-02-19T14:38:36.301Z,6.70
2023-02-19T14:43:32.034Z,5.30
2023-02-19T14:46:09.723Z,5.35
2023-02-19T14:48:46.672Z,5.85
2023-02-19T14:51:27.716Z,6.00
2023-02-19T14:53:57.415Z,6.55
2023-02-19T14:56:31.479Z,6.88
2023-02-19T14:59:09.390Z,5.85
2023-02-19T15:01:36.585Z,6.30
2023-02-19T15:04:04.533Z,5.85
2023-02-19T15:06:34.007Z,5.45
2023-02-19T15:09:06.161Z,6.60
2023-02-19T15:11:34.846Z,6.85
2023-02-19T15:14:08.018Z,5.78
2023-02-19T15:16:36.925Z,5.30
2023-02-19T15:19:09.648Z,6.78
2023-02-19T15:21:44.891Z,6.18
2023-02-19T15:24:15.509Z,6.95
2023-02-19T15:26:47.183Z,5.47
2023-02-19T15:29:17.348Z,6.88
2023-02-19T15:31:55.221Z,6.43
2023-02-19T15:34:31.176Z,6.70
2023-02-19T15:37:07.215Z,6.28
2023-02-19T15:39:40.573Z,6.80
2023-02-19T15:42:15.575Z,6.85
2023-02-19T15:45:08.594Z,5.90
2023-02-19T15:47:38.588Z,5.45
2023-02-19T15:50:23.275Z,7.40
2023-02-19T15:53:04.159Z,5.43
2023-02-19T15:55:40.469Z,6.25
2023-02-19T15:58:40.548Z,6.90
2023-02-19T16:01:20.170Z,6.05
2023-02-19T16:03:48.151Z,6.97
2023-02-19T16:06:17.059Z,6.55
2023-02-19T16:09:04.652Z,5.15
2023-02-19T16:14:18.611Z,5.55
2023-02-19T16:16:49.307Z,6.30
2023-02-19T16:19:26.558Z,6.13
2023-02-19T16:21:55.816Z,6.88
2023-02-19T16:24:28.406Z,7.05
2023-02-19T16:26:57.190Z,6.35
2023-02-19T16:29:28.052Z,5.63
2023-02-19T16:31:59.815Z,6.80
2023-02-19T16:34:40.677Z,10.43
2023-02-19T16:37:41.233Z,7.32
2023-02-19T16:40:08.265Z,7.30
2023-02-19T16:42:36.664Z,7.13
2023-02-19T16:45:03.964Z,7.93
2023-02-19T16:47:34.582Z,6.80
2023-02-19T16:50:03.891Z,7.65
2023-02-19T16:52:31.365Z,7.45
2023-02-19T16:54:58.499Z,8.65
2023-02-19T16:57:25.591Z,8.48
2023-02-19T16:59:52.674Z,7.70
2023-02-19T17:02:22.629Z,7.43
2023-02-19T17:07:18.840Z,6.63
2023-02-19T17:09:46.105Z,6.82
2023-02-19T17:12:15.822Z,6.85
2023-02-19T17:14:42.965Z,6.78
2023-02-19T17:17:10.170Z,7.07
2023-02-19T17:19:39.342Z,7.28
2023-02-19T17:22:07.136Z,7.53
2023-02-19T17:24:34.281Z,8.63
2023-02-19T17:27:01.492Z,7.40
2023-02-19T17:29:30.687Z,8.32
2023-02-19T17:31:57.887Z,8.48
2023-02-19T17:34:24.982Z,8.52
2023-02-19T17:36:52.218Z,8.27
2023-02-19T17:39:19.581Z,8.00
2023-02-19T17:41:46.628Z,10.85
2023-02-19T17:44:13.680Z,7.80
2023-02-19T17:46:41.258Z,7.45
2023-02-19T17:49:10.143Z,8.82
2023-02-19T17:51:37.265Z,8.10
2023-02-19T17:54:05.825Z,7.70
2023-02-19T17:56:34.031Z,9.60
2023-02-19T17:59:01.153Z,8.05
2023-02-19T18:01:28.303Z,9.55
2023-02-19T18:03:55.464Z,9.18
2023-02-19T18:06:22.533Z,9.77
2023-02-19T18:08:51.407Z,7.18
2023-02-19T18:11:19.939Z,8.55
2023-02-19T18:13:48.222Z,10.10
2023-02-19T18:16:16.300Z,8.98
2023-02-19T18:18:44.705Z,8.70
2023-02-19T18:21:13.234Z,8.13
2023-02-19T18:23:40.562Z,7.70
2023-02-19T18:26:10.444Z,8.18
2023-02-19T18:31:06.055Z,8.02
2023-02-19T18:33:34.408Z,8.63
2023-02-19T18:36:01.532Z,8.95
2023-02-19T18:38:28.924Z,8.57
2023-02-19T18:40:57.845Z,10.23
2023-02-19T18:43:26.273Z,8.00
2023-02-19T18:45:53.440Z,8.93
2023-02-19T18:48:20.570Z,7.93
2023-02-19T18:50:47.734Z,9.65
2023-02-19T18:53:15.104Z,8.43
2023-02-19T18:55:42.325Z,9.20
2023-02-19T18:58:09.514Z,8.48
2023-02-19T19:00:36.726Z,8.68
2023-02-19T19:03:03.909Z,8.25
2023-02-19T19:05:31.106Z,7.40
2023-02-19T19:07:59.722Z,8.10
2023-02-19T19:10:28.497Z,8.65
2023-02-19T19:12:55.695Z,8.65
2023-02-19T19:15:24.007Z,9.20
2023-02-19T19:17:51.364Z,8.18
2023-02-19T19:20:20.608Z,9.45
2023-02-19T19:22:54.002Z,9.63
2023-02-19T19:25:23.013Z,9.45
2023-02-19T19:27:51.844Z,9.30
2023-02-19T19:30:20.340Z,9.68
2023-02-19T19:32:52.411Z,7.85
2023-02-19T19:35:21.441Z,10.23
2023-02-19T19:37:49.605Z,9.73
2023-02-19T19:40:17.990Z,8.73
2023-02-19T19:42:45.107Z,9.48
2023-02-19T19:45:12.625Z,9.38
2023-02-19T19:47:39.847Z,9.27
2023-02-19T19:50:07.059Z,9.85
2023-02-19T19:52:34.214Z,9.57
2023-02-19T19:55:01.371Z,8.93
2023-02-19T19:57:30.038Z,9.35
2023-02-19T19:59:57.118Z,9.73
2023-02-19T20:02:24.404Z,10.13
2023-02-19T20:04:51.497Z,10.55
2023-02-19T20:07:18.749Z,8.75
2023-02-19T20:09:49.895Z,10.82
2023-02-19T20:12:17.689Z,9.43
2023-02-19T20:14:46.377Z,8.95
2023-02-19T20:17:13.988Z,10.05
2023-02-19T20:19:41.131Z,10.90
2023-02-19T20:22:08.253Z,10.15
2023-02-19T20:24:35.300Z,10.50
2023-02-19T20:27:02.735Z,10.30
2023-02-19T20:29:33.182Z,9.82
2023-02-19T20:32:02.732Z,8.25
2023-02-19T20:34:30.508Z,9.07
2023-02-19T20:36:58.026Z,9.95
2023-02-19T20:39:29.020Z,10.13
2023-02-19T20:41:57.949Z,10.48
2023-02-19T20:44:26.432Z,9.95
2023-02-19T20:46:54.026Z,9.15
2023-02-19T20:49:23.763Z,10.45
2023-02-19T20:51:54.899Z,10.68
2023-02-19T20:54:27.731Z,10.68
2023-02-19T20:56:57.458Z,10.30
2023-02-19T20:59:28.015Z,9.75
2023-02-19T21:01:55.066Z,10.82
2023-02-19T21:04:22.184Z,11.35
2023-02-19T21:06:52.280Z,11.20
2023-02-19T21:09:20.612Z,9.27
2023-02-19T21:11:48.673Z,11.73
2023-02-19T21:14:16.669Z,10.32
2023-02-19T21:16:44.258Z,9.20
2023-02-19T21:19:11.316Z,10.40
2023-02-19T21:21:40.432Z,10.57
2023-02-19T21:24:09.385Z,10.88
2023-02-19T21:26:38.491Z,9.98
2023-02-19T21:29:07.102Z,11.18
2023-02-19T21:31:38.601Z,11.43
2023-02-19T21:34:10.076Z,12.90
2023-02-19T21:36:37.587Z,10.05
2023-02-19T21:39:05.704Z,11.57
2023-02-19T21:41:32.789Z,9.90
2023-02-19T21:44:00.009Z,9.95
2023-02-19T21:46:27.324Z,10.15
2023-02-19T21:48:56.353Z,9.75
2023-02-19T21:51:30.381Z,11.02
2023-02-19T21:53:57.884Z,9.30
2023-02-19T21:56:27.623Z,9.25
2023-02-19T21:58:54.736Z,10.00
2023-02-19T22:01:25.971Z,9.25
2023-02-19T22:03:53.265Z,9.90
2023-02-19T22:06:26.921Z,9.82
2023-02-19T22:08:55.345Z,9.18
2023-02-19T22:11:22.590Z,10.23
2023-02-19T22:13:49.889Z,10.18
2023-02-19T22:16:18.169Z,10.18
2023-02-19T22:18:53.046Z,8.82
2023-02-19T22:21:21.445Z,9.27
2023-02-19T22:23:50.058Z,10.73
2023-02-19T22:26:22.906Z,10.55
2023-02-19T22:28:50.293Z,9.90
2023-02-19T22:31:20.123Z,8.55
2023-02-19T22:36:22.789Z,8.88
2023-02-19T22:41:18.172Z,10.35
2023-02-19T22:43:45.834Z,10.05
2023-02-19T22:46:23.970Z,8.80
2023-02-19T22:48:51.415Z,8.88
2023-02-19T22:51:21.004Z,10.05
2023-02-19T22:53:55.705Z,10.15
2023-02-19T22:56:25.467Z,12.23
2023-02-19T22:58:53.986Z,11.30
2023-02-19T23:01:21.797Z,11.57
2023-02-19T23:03:51.203Z,11.13
2023-02-19T23:06:23.303Z,9.88
2023-02-19T23:08:51.388Z,10.73
2023-02-19T23:11:27.189Z,11.55
2023-02-19T23:16:21.913Z,10.07
2023-02-19T23:18:49.445Z,12.43
2023-02-19T23:21:17.551Z,12.93
2023-02-19T23:23:46.277Z,11.43
2023-02-19T23:26:14.812Z,11.35
2023-02-19T23:28:43.461Z,11.35
2023-02-19T23:31:11.491Z,10.32
2023-02-19T23:33:40.251Z,12.50
2023-02-19T23:36:08.309Z,10.85
2023-02-19T23:38:35.586Z,11.35
2023-02-19T23:41:03.091Z,11.35
2023-02-19T23:43:30.232Z,12.30
2023-02-19T23:45:57.324Z,10.18
2023-02-19T23:48:24.387Z,10.02
2023-02-19T23:50:51.505Z,9.20
2023-02-19T23:53:18.750Z,10.77
2023-02-19T23:55:45.903Z,10.48
2023-02-19T23:58:13.104Z,9.75
